Time;durP1;ratioP1;P1;durP2;ratioP2;P2;SDS_P1;SDS_P2;PMS_P1;PMS_P2;Temp;Humidity;BMP_temperature;BMP_pressure;BME280_temperature;BME280_humidity;BME280_pressure;Samples;Min_cycle;Max_cycle;Signal;HPM_P1;HPM_P2
2023/04/05 00:02:01;;;;;;;4.03;2.23;;;5.60;90.00;;;;;;5071020;28;20205;-65
2023/04/05 00:04:27;;;;;;;3.17;2.30;;;5.60;90.30;;;;;;5071543;28;20172;-65
2023/04/05 00:06:53;;;;;;;3.10;2.03;;;5.60;90.80;;;;;;5076765;28;20235;-65
2023/04/05 00:09:19;;;;;;;4.27;2.00;;;5.50;90.50;;;;;;5078879;28;20172;-64
2023/04/05 00:11:46;;;;;;;3.37;2.17;;;5.50;90.60;;;;;;5062178;28;20320;-66
2023/04/05 00:14:16;;;;;;;3.30;2.20;;;5.50;90.60;;;;;;5107244;28;20313;-65
2023/04/05 00:16:44;;;;;;;3.43;2.30;;;5.50;90.80;;;;;;5078604;28;20295;-66
2023/04/05 00:19:12;;;;;;;3.33;2.50;;;5.40;91.00;;;;;;5078621;28;20176;-65
2023/04/05 00:21:38;;;;;;;3.30;2.17;;;5.50;91.20;;;;;;5078218;28;20172;-65
2023/04/05 00:24:08;;;;;;;5.40;2.57;;;5.40;91.40;;;;;;5078660;28;20168;-65
2023/04/05 00:26:35;;;;;;;3.63;2.20;;;5.40;91.60;;;;;;5077921;28;20253;-65
2023/04/05 00:29:05;;;;;;;4.00;2.20;;;5.40;91.80;;;;;;5078129;28;20160;-65
2023/04/05 00:31:33;;;;;;;3.40;2.17;;;5.40;91.90;;;;;;5079936;28;20167;-65
2023/04/05 00:33:58;;;;;;;3.40;2.40;;;5.40;91.90;;;;;;5071050;28;20160;-66
2023/04/05 00:36:27;;;;;;;3.67;2.17;;;5.50;92.00;;;;;;5099765;28;20203;-65
2023/04/05 00:38:54;;;;;;;3.27;2.33;;;5.40;92.10;;;;;;5089626;28;20209;-66
2023/04/05 00:41:20;;;;;;;4.23;2.20;;;5.40;92.20;;;;;;5074277;28;20176;-64
2023/04/05 00:43:50;;;;;;;3.30;2.33;;;5.30;92.20;;;;;;5078181;28;20274;-66
2023/04/05 00:46:18;;;;;;;5.40;2.30;;;5.30;92.30;;;;;;5073964;28;20234;-65
2023/04/05 00:48:46;;;;;;;3.50;2.20;;;5.30;92.40;;;;;;5068606;28;20187;-65
2023/04/05 00:51:12;;;;;;;3.00;2.20;;;5.30;92.50;;;;;;5078808;28;20191;-65
2023/04/05 00:53:43;;;;;;;3.87;2.33;;;5.30;92.60;;;;;;5070078;28;20244;-66
2023/04/05 00:56:12;;;;;;;3.17;2.20;;;5.30;92.80;;;;;;5078244;28;20232;-66
2023/04/05 00:58:41;;;;;;;3.10;2.40;;;5.40;93.00;;;;;;5060536;28;20173;-66
2023/04/05 01:01:15;;;;;;;2.97;2.30;;;5.40;93.10;;;;;;5061136;28;20628;-64
2023/04/05 01:03:54;;;;;;;4.30;2.60;;;5.40;93.20;;;;;;5098298;28;20200;-65
2023/04/05 01:06:32;;;;;;;3.00;2.50;;;5.40;93.30;;;;;;5069567;28;20192;-64
2023/04/05 01:09:16;;;;;;;5.07;2.53;;;5.40;93.40;;;;;;5096174;28;20168;-66
2023/04/05 01:11:46;;;;;;;3.20;2.30;;;5.40;93.50;;;;;;5070575;28;20221;-66
2023/04/05 01:14:14;;;;;;;3.30;2.43;;;5.50;93.60;;;;;;5073570;28;20176;-66
2023/04/05 01:16:42;;;;;;;3.33;2.40;;;5.50;93.60;;;;;;5069201;28;21297;-66
2023/04/05 01:19:12;;;;;;;3.90;2.23;;;5.50;93.70;;;;;;5075106;28;20203;-66
2023/04/05 01:21:44;;;;;;;3.97;2.80;;;5.50;93.80;;;;;;5075423;28;20172;-66
2023/04/05 01:24:49;;;;;;;3.83;2.33;;;5.50;93.80;;;;;;5078558;28;20178;-67
2023/04/05 01:27:40;;;;;;;3.23;2.23;;;5.60;93.80;;;;;;5077279;28;20203;-66
2023/04/05 01:30:17;;;;;;;3.57;2.50;;;5.60;93.90;;;;;;5104059;28;20222;-65
2023/04/05 01:32:57;;;;;;;3.53;2.20;;;5.60;94.00;;;;;;5077466;28;20266;-67
2023/04/05 01:35:37;;;;;;;3.60;2.53;;;5.60;94.20;;;;;;5071724;28;20165;-66
2023/04/05 01:38:10;;;;;;;4.23;2.20;;;5.60;94.20;;;;;;5068137;28;20179;-65
2023/04/05 01:40:37;;;;;;;4.00;2.80;;;5.60;94.60;;;;;;5085284;28;21616;-66
2023/04/05 01:43:12;;;;;;;3.33;2.40;;;5.60;94.40;;;;;;5077111;28;20214;-65
2023/04/05 01:45:43;;;;;;;3.73;2.50;;;5.60;94.30;;;;;;5100979;28;20168;-67
2023/04/05 01:48:08;;;;;;;3.37;2.23;;;5.60;94.40;;;;;;5107179;28;20256;-66
2023/04/05 01:50:36;;;;;;;3.33;2.33;;;5.70;94.60;;;;;;5086169;28;20198;-67
2023/04/05 01:53:02;;;;;;;4.77;2.57;;;5.70;94.70;;;;;;5095314;28;20190;-64
2023/04/05 01:55:30;;;;;;;3.27;2.43;;;5.70;94.60;;;;;;5109943;28;20184;-65
2023/04/05 01:57:56;;;;;;;4.43;2.50;;;5.60;94.60;;;;;;5080869;28;20188;-65
2023/04/05 02:00:22;;;;;;;3.90;2.40;;;5.60;94.60;;;;;;5067888;28;20500;-65
2023/04/05 02:02:48;;;;;;;4.60;2.53;;;5.60;94.70;;;;;;5075140;28;20252;-65
2023/04/05 02:05:13;;;;;;;3.27;2.43;;;5.60;94.70;;;;;;5076116;28;20203;-65
2023/04/05 02:07:39;;;;;;;4.73;2.80;;;5.60;94.80;;;;;;5069112;28;20210;-66
2023/04/05 02:10:06;;;;;;;5.10;2.57;;;5.60;94.90;;;;;;5086701;28;20175;-65
2023/04/05 02:12:31;;;;;;;3.70;2.50;;;5.50;95.00;;;;;;5075504;28;20260;-66
2023/04/05 02:14:57;;;;;;;2.87;2.20;;;5.50;95.00;;;;;;5088697;28;20232;-66
2023/04/05 02:17:23;;;;;;;4.10;2.50;;;5.50;95.00;;;;;;5076728;28;20172;-66
2023/04/05 02:19:51;;;;;;;4.17;2.33;;;5.50;95.00;;;;;;5065016;28;20208;-65
2023/04/05 02:22:20;;;;;;;3.00;2.13;;;5.40;95.00;;;;;;5071362;28;20172;-65
2023/04/05 02:24:45;;;;;;;2.57;2.03;;;5.50;95.10;;;;;;5076771;28;20223;-66
2023/04/05 02:27:13;;;;;;;3.33;2.20;;;5.40;95.00;;;;;;5075800;28;20247;-66
2023/04/05 02:29:39;;;;;;;3.43;2.30;;;5.30;95.10;;;;;;5086641;28;20179;-66
2023/04/05 02:32:05;;;;;;;3.87;2.30;;;5.30;95.20;;;;;;5078680;28;20197;-65
2023/04/05 02:34:33;;;;;;;2.93;2.20;;;5.20;95.30;;;;;;5080948;28;20183;-65
2023/04/05 02:37:01;;;;;;;3.40;2.10;;;5.20;95.40;;;;;;5080542;28;20202;-66
2023/04/05 02:39:29;;;;;;;4.70;2.30;;;5.20;95.50;;;;;;5077167;28;20215;-66
2023/04/05 02:41:57;;;;;;;2.70;1.97;;;5.20;95.60;;;;;;5106720;28;20214;-65
2023/04/05 02:44:23;;;;;;;3.67;2.47;;;5.10;95.60;;;;;;5073632;28;20192;-65
2023/04/05 02:46:49;;;;;;;4.70;2.47;;;5.10;95.70;;;;;;5114673;28;20211;-65
2023/04/05 02:49:15;;;;;;;3.23;2.40;;;5.00;95.90;;;;;;5085150;28;20297;-65
2023/04/05 02:51:43;;;;;;;6.27;2.43;;;5.00;96.10;;;;;;5078765;28;20302;-65
2023/04/05 02:54:11;;;;;;;2.70;2.27;;;5.00;96.30;;;;;;5078086;28;20229;-66
2023/04/05 02:56:39;;;;;;;3.90;2.40;;;5.00;96.40;;;;;;5066640;28;20183;-65
2023/04/05 02:59:04;;;;;;;3.53;2.57;;;4.90;96.60;;;;;;5071925;28;20196;-66
2023/04/05 03:01:31;;;;;;;2.60;2.13;;;4.90;96.50;;;;;;5067040;28;20200;-66
2023/04/05 03:03:56;;;;;;;3.97;2.33;;;4.90;96.60;;;;;;5066915;28;20200;-65
2023/04/05 03:06:22;;;;;;;3.70;2.63;;;4.90;96.90;;;;;;5091821;28;20231;-65
2023/04/05 03:08:50;;;;;;;4.47;2.50;;;4.80;96.80;;;;;;5080763;28;20168;-65
2023/04/05 03:11:18;;;;;;;4.00;2.57;;;4.80;96.90;;;;;;5092748;28;20237;-65
2023/04/05 03:13:47;;;;;;;2.80;2.10;;;4.80;96.90;;;;;;5097581;28;20262;-66
2023/04/05 03:16:19;;;;;;;3.27;2.20;;;4.80;97.00;;;;;;5098112;28;20230;-65
2023/04/05 03:18:44;;;;;;;3.00;2.07;;;4.70;97.00;;;;;;5078280;28;20201;-66
2023/04/05 03:21:10;;;;;;;3.50;2.30;;;4.60;96.90;;;;;;5080847;28;20185;-66
2023/04/05 03:23:38;;;;;;;3.43;1.90;;;4.60;97.10;;;;;;5084920;28;20204;-66
2023/04/05 03:26:05;;;;;;;3.10;2.30;;;4.60;97.20;;;;;;5073731;28;20217;-66
2023/04/05 03:28:33;;;;;;;2.97;2.20;;;4.50;97.20;;;;;;5077040;28;20184;-66
2023/04/05 03:30:59;;;;;;;3.40;2.17;;;4.50;97.40;;;;;;5062854;28;20204;-66
2023/04/05 03:33:30;;;;;;;5.07;2.23;;;4.50;97.50;;;;;;5077041;28;20202;-66
2023/04/05 03:35:56;;;;;;;4.20;2.07;;;4.40;97.70;;;;;;5077864;28;20184;-66
2023/04/05 03:38:24;;;;;;;2.87;2.07;;;4.40;97.70;;;;;;5109096;28;20203;-66
2023/04/05 03:40:49;;;;;;;4.07;2.40;;;4.30;97.90;;;;;;5128749;27;20187;-66
2023/04/05 03:43:15;;;;;;;5.10;2.30;;;4.30;97.90;;;;;;5067376;28;20298;-66
2023/04/05 03:45:43;;;;;;;2.53;2.03;;;4.30;98.10;;;;;;5059916;28;20211;-66
2023/04/05 03:48:09;;;;;;;2.67;2.10;;;4.20;98.10;;;;;;5099656;28;20266;-66
2023/04/05 03:50:35;;;;;;;3.27;1.97;;;4.20;98.20;;;;;;5097074;28;20241;-66
2023/04/05 03:53:00;;;;;;;3.10;2.10;;;4.20;98.40;;;;;;5083960;28;20197;-66
2023/04/05 03:55:26;;;;;;;3.60;2.00;;;4.10;98.50;;;;;;5097187;28;20243;-64
2023/04/05 03:57:52;;;;;;;3.23;2.10;;;4.00;98.60;;;;;;5097288;28;20203;-64
2023/04/05 04:00:22;;;;;;;3.77;2.30;;;4.00;98.80;;;;;;5079706;28;20172;-65
2023/04/05 04:02:49;;;;;;;3.03;2.03;;;4.00;98.90;;;;;;5086310;28;20202;-65
2023/04/05 04:05:18;;;;;;;3.47;2.10;;;3.90;99.10;;;;;;5084924;28;20196;-65
2023/04/05 04:07:44;;;;;;;3.10;2.03;;;3.90;99.30;;;;;;5095564;28;20196;-65
2023/04/05 04:10:18;;;;;;;3.37;2.23;;;3.90;99.40;;;;;;5061032;28;20261;-64
2023/04/05 04:12:48;;;;;;;2.73;1.80;;;3.80;99.70;;;;;;5118068;27;20171;-65
2023/04/05 04:15:14;;;;;;;3.90;2.43;;;3.80;99.80;;;;;;5078809;28;20175;-65
2023/04/05 04:17:42;;;;;;;2.90;2.30;;;3.70;99.80;;;;;;5078847;28;20210;-66
2023/04/05 04:20:10;;;;;;;5.20;2.77;;;3.70;99.90;;;;;;5074499;28;20206;-65
2023/04/05 04:22:40;;;;;;;4.03;2.40;;;3.70;99.90;;;;;;5075367;28;20211;-66
2023/04/05 04:25:11;;;;;;;10.00;7.50;;;3.60;99.90;;;;;;5111816;27;20190;-66
2023/04/05 04:27:45;;;;;;;6.57;4.00;;;3.60;99.90;;;;;;5066798;28;20200;-64
2023/04/05 04:30:15;;;;;;;4.30;3.40;;;3.60;99.90;;;;;;5076918;28;20210;-65
2023/04/05 04:32:54;;;;;;;4.60;2.80;;;3.60;99.90;;;;;;5065236;28;20195;-64
2023/04/05 04:35:25;;;;;;;3.60;2.27;;;3.60;99.90;;;;;;5067377;28;20171;-66
2023/04/05 04:37:57;;;;;;;13.50;9.57;;;3.60;99.90;;;;;;5072719;28;20168;-64
2023/04/05 04:40:39;;;;;;;14.60;9.37;;;3.60;99.90;;;;;;5092104;28;20194;-66
2023/04/05 04:43:08;;;;;;;8.73;5.20;;;3.60;99.90;;;;;;5077219;28;20184;-64
2023/04/05 04:45:38;;;;;;;5.27;4.20;;;3.60;99.90;;;;;;5074400;28;20241;-65
2023/04/05 04:48:03;;;;;;;5.17;3.50;;;3.60;99.90;;;;;;5063039;28;20180;-65
2023/04/05 04:50:32;;;;;;;5.47;3.80;;;3.60;99.90;;;;;;5108207;28;20191;-65
2023/04/05 04:52:59;;;;;;;5.40;3.77;;;3.60;99.90;;;;;;5082523;28;20284;-66
2023/04/05 04:55:26;;;;;;;3.93;2.63;;;3.60;99.90;;;;;;5092721;28;20181;-65
2023/04/05 04:57:57;;;;;;;3.33;2.60;;;3.70;99.90;;;;;;5091380;28;20176;-65
2023/04/05 05:00:27;;;;;;;3.80;2.43;;;3.60;99.90;;;;;;5104497;28;20212;-65
2023/04/05 05:02:54;;;;;;;2.53;2.30;;;3.60;99.90;;;;;;5077669;28;20179;-66
2023/04/05 05:05:23;;;;;;;2.70;2.10;;;3.60;99.90;;;;;;5080117;28;20179;-66
2023/04/05 05:07:52;;;;;;;3.07;2.30;;;3.60;99.90;;;;;;5080226;28;20261;-66
2023/04/05 05:10:18;;;;;;;4.20;2.90;;;3.60;99.90;;;;;;5067681;28;20177;-65
2023/04/05 05:12:44;;;;;;;6.33;4.40;;;3.60;99.90;;;;;;5095107;28;20176;-66
2023/04/05 05:15:13;;;;;;;5.33;3.70;;;3.60;99.90;;;;;;5089627;28;20210;-66
2023/04/05 05:17:39;;;;;;;4.07;3.03;;;3.60;99.90;;;;;;5079547;28;20184;-65
2023/04/05 05:20:09;;;;;;;5.23;2.83;;;3.60;99.90;;;;;;5070113;28;20195;-65
2023/04/05 05:22:35;;;;;;;4.93;2.70;;;3.70;99.90;;;;;;5078775;28;20258;-65
2023/04/05 05:25:04;;;;;;;4.83;2.63;;;3.60;99.90;;;;;;5077493;28;20200;-64
2023/04/05 05:27:30;;;;;;;3.67;2.50;;;3.60;99.90;;;;;;5077350;28;20215;-64
2023/04/05 05:29:56;;;;;;;3.00;2.10;;;3.70;99.90;;;;;;5059257;28;20183;-66
2023/04/05 05:32:24;;;;;;;2.70;2.03;;;3.60;99.90;;;;;;5075333;28;20180;-65
2023/04/05 05:34:49;;;;;;;2.73;2.20;;;3.60;99.90;;;;;;5094644;28;20286;-66
2023/04/05 05:37:17;;;;;;;2.23;2.00;;;3.70;99.90;;;;;;5085562;28;20215;-66
2023/04/05 05:39:46;;;;;;;2.90;2.00;;;3.60;99.90;;;;;;5077134;28;20271;-65
2023/04/05 05:42:11;;;;;;;3.27;2.20;;;3.60;99.90;;;;;;5077467;28;20187;-65
2023/04/05 05:44:37;;;;;;;4.53;2.10;;;3.60;99.90;;;;;;5069899;28;20180;-67
2023/04/05 05:47:05;;;;;;;2.87;2.27;;;3.50;99.90;;;;;;5103573;28;20208;-66
2023/04/05 05:49:31;;;;;;;3.33;2.37;;;3.60;99.90;;;;;;5077408;28;20172;-65
2023/04/05 05:51:59;;;;;;;3.20;2.23;;;3.60;99.90;;;;;;5076678;28;20178;-64
2023/04/05 05:54:27;;;;;;;2.17;1.97;;;3.60;99.90;;;;;;5089927;28;20205;-64
2023/04/05 05:56:55;;;;;;;2.63;2.07;;;3.60;99.90;;;;;;5078225;28;20508;-64
2023/04/05 05:59:21;;;;;;;3.23;2.27;;;3.70;99.90;;;;;;5087762;28;20168;-65
2023/04/05 06:01:47;;;;;;;3.17;2.10;;;3.70;99.90;;;;;;5067223;28;20183;-65
2023/04/05 06:04:13;;;;;;;2.80;2.30;;;3.60;99.90;;;;;;5062870;28;20187;-64
2023/04/05 06:06:46;;;;;;;4.67;2.37;;;3.70;99.90;;;;;;5096424;28;20204;-66
2023/04/05 06:09:15;;;;;;;2.53;2.10;;;3.70;99.90;;;;;;5080656;28;20164;-65
2023/04/05 06:11:41;;;;;;;2.73;2.23;;;3.70;99.90;;;;;;5086986;28;20163;-65
2023/04/05 06:14:07;;;;;;;2.80;2.27;;;3.80;99.90;;;;;;5082216;28;20193;-64
2023/04/05 06:16:34;;;;;;;3.63;2.30;;;3.80;99.90;;;;;;5089513;28;20176;-64
2023/04/05 06:19:02;;;;;;;3.13;2.37;;;3.90;99.90;;;;;;5085144;28;20332;-65
2023/04/05 06:21:28;;;;;;;3.33;2.33;;;3.90;99.90;;;;;;5062851;28;20176;-66
2023/04/05 06:23:53;;;;;;;3.33;2.40;;;3.90;99.90;;;;;;5073081;28;20172;-65
2023/04/05 06:26:23;;;;;;;3.83;2.57;;;4.00;99.90;;;;;;5075893;28;20231;-65
2023/04/05 06:28:49;;;;;;;3.10;2.50;;;4.00;99.90;;;;;;5080614;28;20176;-64
2023/04/05 06:31:16;;;;;;;3.83;2.80;;;4.10;99.90;;;;;;5091150;28;20254;-64
2023/04/05 06:33:44;;;;;;;4.23;2.77;;;4.10;99.90;;;;;;5091444;28;20186;-65
2023/04/05 06:36:10;;;;;;;3.20;2.40;;;4.10;99.90;;;;;;5061164;28;20183;-65
2023/04/05 06:38:35;;;;;;;2.90;2.60;;;4.20;99.90;;;;;;5079608;28;20278;-65
2023/04/05 06:41:01;;;;;;;3.37;2.70;;;4.20;99.90;;;;;;5080353;28;20198;-65
2023/04/05 06:43:27;;;;;;;4.53;2.80;;;4.20;99.90;;;;;;5080729;28;20171;-66
2023/04/05 06:45:56;;;;;;;4.10;2.60;;;4.30;99.90;;;;;;5088126;28;20208;-65
2023/04/05 06:48:22;;;;;;;2.90;2.50;;;4.30;99.90;;;;;;5076953;28;20176;-66
2023/04/05 06:50:59;;;;;;;3.87;2.83;;;4.40;99.90;;;;;;5078422;28;20194;-65
2023/04/05 06:53:26;;;;;;;4.47;2.73;;;4.40;99.90;;;;;;5090705;28;20171;-65
2023/04/05 06:56:04;;;;;;;4.43;2.83;;;4.50;99.90;;;;;;5081003;28;20165;-65
2023/04/05 06:58:32;;;;;;;3.40;2.53;;;4.60;99.90;;;;;;5066653;28;20192;-65
2023/04/05 07:00:59;;;;;;;5.00;3.17;;;4.50;99.90;;;;;;5080514;28;20179;-66
2023/04/05 07:03:25;;;;;;;4.67;2.77;;;4.60;99.90;;;;;;5072900;28;20172;-65
2023/04/05 07:05:55;;;;;;;3.60;2.73;;;4.70;99.90;;;;;;5074773;28;20252;-65
2023/04/05 07:08:22;;;;;;;4.13;2.60;;;4.70;99.90;;;;;;5066458;28;20262;-64
2023/04/05 07:10:51;;;;;;;6.10;3.00;;;4.80;99.90;;;;;;5079626;28;20191;-66
2023/04/05 07:13:23;;;;;;;3.97;3.00;;;4.90;99.90;;;;;;5080072;28;20233;-66
2023/04/05 07:15:50;;;;;;;3.23;2.63;;;5.00;99.90;;;;;;5070620;28;20180;-66
2023/04/05 07:18:16;;;;;;;5.07;2.50;;;5.00;99.90;;;;;;5080255;28;20192;-66
2023/04/05 07:20:47;;;;;;;4.87;2.80;;;5.10;99.90;;;;;;5084415;28;20239;-66
2023/04/05 07:23:16;;;;;;;4.47;2.90;;;5.20;99.90;;;;;;5114362;28;20192;-66
2023/04/05 07:25:42;;;;;;;4.23;3.10;;;5.30;99.90;;;;;;5080274;28;20192;-66
2023/04/05 07:28:08;;;;;;;4.60;2.53;;;5.40;99.90;;;;;;5073329;28;20212;-65
2023/04/05 07:30:36;;;;;;;6.07;2.80;;;5.50;99.90;;;;;;5093780;28;20265;-65
2023/04/05 07:33:02;;;;;;;4.77;2.80;;;5.50;99.90;;;;;;5105490;28;20180;-65
2023/04/05 07:35:30;;;;;;;4.30;2.53;;;5.60;99.90;;;;;;5090052;28;20165;-66
2023/04/05 07:37:56;;;;;;;3.83;2.80;;;5.60;99.90;;;;;;5095970;28;20184;-65
2023/04/05 07:40:21;;;;;;;4.03;3.23;;;5.70;99.90;;;;;;5098836;28;20179;-65
2023/04/05 07:42:47;;;;;;;4.60;3.17;;;5.80;99.90;;;;;;5090212;28;20211;-65
2023/04/05 07:45:12;;;;;;;6.13;2.90;;;5.80;99.90;;;;;;5080845;28;20251;-65
2023/04/05 07:47:41;;;;;;;6.80;3.30;;;5.90;99.90;;;;;;5097217;28;20191;-65
2023/04/05 07:50:10;;;;;;;3.90;3.00;;;6.00;99.90;;;;;;5085739;28;20199;-65
2023/04/05 07:52:36;;;;;;;4.53;2.70;;;6.10;99.90;;;;;;5075413;28;20191;-65
2023/04/05 07:55:02;;;;;;;5.30;2.97;;;6.10;99.90;;;;;;5079830;28;20168;-66
2023/04/05 07:57:30;;;;;;;3.10;2.60;;;6.20;99.90;;;;;;5085757;28;20188;-66
2023/04/05 08:00:00;;;;;;;4.23;2.63;;;6.30;99.90;;;;;;5084558;28;20185;-65
2023/04/05 08:02:28;;;;;;;3.70;2.40;;;6.40;99.90;;;;;;5079121;28;20261;-65
2023/04/05 08:04:54;;;;;;;3.90;2.50;;;6.50;99.90;;;;;;5079314;28;20190;-66
2023/04/05 08:07:20;;;;;;;3.13;2.53;;;6.50;99.90;;;;;;5078798;28;20184;-66
2023/04/05 08:09:50;;;;;;;4.17;2.57;;;6.60;99.90;;;;;;5076958;28;20196;-66
2023/04/05 08:12:16;;;;;;;3.27;2.20;;;6.60;99.90;;;;;;5077137;28;20160;-65
2023/04/05 08:14:41;;;;;;;4.77;2.70;;;6.80;99.90;;;;;;5078502;28;20202;-65
2023/04/05 08:17:07;;;;;;;3.30;2.70;;;6.90;99.90;;;;;;5078832;28;20175;-66
2023/04/05 08:19:32;;;;;;;3.30;2.63;;;6.90;99.90;;;;;;5085617;28;20291;-65
2023/04/05 08:21:58;;;;;;;3.97;2.73;;;7.00;99.90;;;;;;5065736;28;20204;-65
2023/04/05 08:24:24;;;;;;;3.50;2.80;;;7.10;99.90;;;;;;5061007;28;20180;-66
2023/04/05 08:26:51;;;;;;;3.23;2.40;;;7.20;99.90;;;;;;5078811;28;20246;-65
2023/04/05 08:29:17;;;;;;;3.33;2.63;;;7.30;99.90;;;;;;5087502;28;20176;-65
2023/04/05 08:31:45;;;;;;;3.63;2.50;;;7.30;99.90;;;;;;5075593;28;20287;-65
2023/04/05 08:34:12;;;;;;;2.80;2.43;;;7.50;99.90;;;;;;5111303;28;20199;-65
2023/04/05 08:36:38;;;;;;;3.53;2.60;;;7.40;99.90;;;;;;5078895;28;20188;-65
2023/04/05 08:39:04;;;;;;;3.57;2.47;;;7.60;99.90;;;;;;5078798;28;20240;-66
2023/04/05 08:41:41;;;;;;;3.47;2.17;;;7.70;99.90;;;;;;5058972;28;20204;-66
2023/04/05 08:44:09;;;;;;;3.00;2.07;;;7.80;99.90;;;;;;5109004;28;20191;-66
2023/04/05 08:46:35;;;;;;;2.80;2.17;;;7.90;99.90;;;;;;5078225;28;20305;-65
2023/04/05 08:49:11;;;;;;;3.00;1.90;;;7.90;99.90;;;;;;5074769;28;20188;-66
2023/04/05 08:51:39;;;;;;;2.77;2.40;;;8.00;99.90;;;;;;5079807;28;20190;-65
2023/04/05 08:54:06;;;;;;;2.87;1.97;;;8.10;99.90;;;;;;5087924;28;20191;-65
2023/04/05 08:56:33;;;;;;;2.93;1.97;;;8.20;99.90;;;;;;5098768;28;20317;-67
2023/04/05 08:59:10;;;;;;;4.57;2.00;;;8.20;99.90;;;;;;5098560;28;20202;-66
2023/04/05 09:01:42;;;;;;;3.23;1.97;;;8.30;99.90;;;;;;5087543;28;20258;-65
2023/04/05 09:04:14;;;;;;;3.00;2.40;;;8.40;99.90;;;;;;5078494;28;20211;-66
2023/04/05 09:06:43;;;;;;;2.40;2.00;;;8.50;99.90;;;;;;5107045;28;20228;-66
2023/04/05 09:09:10;;;;;;;2.87;2.20;;;8.50;99.90;;;;;;5074826;28;20169;-66
2023/04/05 09:11:36;;;;;;;3.73;2.23;;;8.60;99.90;;;;;;5075176;28;20172;-65
2023/04/05 09:14:06;;;;;;;3.20;2.13;;;8.70;99.90;;;;;;5065752;28;20202;-65
2023/04/05 09:16:37;;;;;;;2.43;2.00;;;8.80;99.90;;;;;;5077813;28;20176;-64
2023/04/05 09:19:03;;;;;;;2.67;1.50;;;8.90;99.90;;;;;;5112134;28;20183;-65
2023/04/05 09:21:48;;;;;;;2.10;1.80;;;9.00;99.90;;;;;;5078114;28;20434;-65
2023/04/05 09:24:14;;;;;;;2.97;2.00;;;9.10;99.90;;;;;;5116233;27;20217;-65
2023/04/05 09:26:40;;;;;;;3.50;2.10;;;9.20;99.90;;;;;;5081184;28;20235;-65
2023/04/05 09:29:08;;;;;;;2.43;1.80;;;9.20;99.90;;;;;;5078157;28;20164;-66
2023/04/05 09:31:35;;;;;;;2.42;1.88;;;9.30;99.90;;;;;;5069293;28;20180;-64
2023/04/05 09:34:02;;;;;;;2.72;2.10;;;9.40;99.90;;;;;;5077541;28;20180;-65
2023/04/05 09:36:28;;;;;;;2.63;1.80;;;9.60;99.90;;;;;;5069350;28;20248;-65
2023/04/05 09:39:09;;;;;;;2.67;2.10;;;9.60;99.90;;;;;;5077398;28;20204;-65
2023/04/05 09:41:35;;;;;;;2.90;2.17;;;9.70;99.90;;;;;;5070518;28;20249;-64
2023/04/05 09:44:03;;;;;;;3.30;2.10;;;9.80;99.90;;;;;;5077927;28;20180;-64
2023/04/05 09:46:36;;;;;;;2.83;2.20;;;9.90;99.90;;;;;;5086268;28;20207;-65
2023/04/05 09:49:05;;;;;;;3.03;2.10;;;10.00;99.90;;;;;;5062885;28;20169;-65
2023/04/05 09:51:36;;;;;;;5.25;2.30;;;10.00;99.90;;;;;;5111377;28;20192;-64
2023/04/05 09:54:07;;;;;;;3.17;2.47;;;10.10;99.80;;;;;;5069240;28;20191;-65
2023/04/05 09:56:38;;;;;;;3.65;2.50;;;10.20;99.40;;;;;;5111653;28;20255;-65
2023/04/05 09:59:09;;;;;;;2.40;2.10;;;10.40;98.90;;;;;;5085860;28;20204;-65
2023/04/05 10:01:35;;;;;;;3.30;2.50;;;10.80;98.10;;;;;;5077410;28;20172;-65
2023/04/05 10:04:01;;;;;;;3.10;2.47;;;11.50;98.30;;;;;;5078248;28;20176;-65
2023/04/05 10:06:37;;;;;;;3.80;2.30;;;12.20;96.80;;;;;;5094912;28;20472;-65
2023/04/05 10:09:08;;;;;;;3.90;2.47;;;12.80;93.90;;;;;;5088024;28;20221;-66
2023/04/05 10:11:37;;;;;;;3.75;2.17;;;13.40;92.70;;;;;;5080966;28;20287;-66
2023/04/05 10:14:05;;;;;;;2.88;2.33;;;14.00;95.00;;;;;;5082194;28;20176;-65
2023/04/05 10:17:00;;;;;;;3.28;2.22;;;14.50;91.90;;;;;;5077893;28;20182;-65
2023/04/05 10:20:08;;;;;;;2.95;2.45;;;15.00;77.20;;;;;;5077537;28;20180;-65
2023/04/05 10:22:43;;;;;;;3.45;2.00;;;15.40;82.10;;;;;;5074573;28;20165;-65
2023/04/05 10:25:43;;;;;;;3.60;2.47;;;15.70;83.40;;;;;;5078623;28;20219;-65
2023/04/05 10:28:38;;;;;;;3.53;2.50;;;16.00;76.60;;;;;;5107729;28;20195;-65
2023/04/05 10:31:11;;;;;;;2.63;2.03;;;16.20;77.90;;;;;;5060693;28;20208;-65
2023/04/05 10:33:44;;;;;;;3.45;2.33;;;16.40;76.10;;;;;;5057879;28;20165;-65
2023/04/05 10:36:28;;;;;;;3.08;2.00;;;16.70;78.70;;;;;;5076916;28;20184;-66
2023/04/05 10:39:10;;;;;;;3.80;2.50;;;16.80;76.40;;;;;;5076301;28;20179;-66
2023/04/05 10:42:01;;;;;;;2.95;2.30;;;17.00;70.90;;;;;;5066325;28;20172;-65
2023/04/05 10:44:36;;;;;;;3.65;2.28;;;17.20;75.50;;;;;;5068941;28;20464;-65
2023/04/05 10:47:04;;;;;;;2.70;2.03;;;17.20;77.60;;;;;;5093785;28;20273;-65
2023/04/05 10:49:40;;;;;;;2.85;2.17;;;17.20;78.70;;;;;;5079730;28;20195;-66
2023/04/05 10:52:07;;;;;;;4.03;2.35;;;17.10;73.00;;;;;;5090004;28;20163;-65
2023/04/05 10:54:35;;;;;;;3.15;2.40;;;17.10;76.70;;;;;;5094573;28;20263;-65
2023/04/05 10:57:09;;;;;;;2.67;1.98;;;17.00;76.70;;;;;;5080113;28;20192;-66
2023/04/05 10:59:38;;;;;;;3.08;2.10;;;17.00;71.10;;;;;;5079215;28;20175;-65
2023/04/05 11:02:05;;;;;;;3.08;2.47;;;17.00;77.30;;;;;;5079905;28;20176;-65
2023/04/05 11:04:32;;;;;;;2.90;2.30;;;17.00;75.90;;;;;;5063551;28;20177;-66
2023/04/05 11:07:11;;;;;;;2.63;1.98;;;17.00;75.80;;;;;;5079506;28;20203;-66
2023/04/05 11:09:48;;;;;;;3.47;2.38;;;17.00;70.50;;;;;;5076604;28;20354;-65
2023/04/05 11:12:15;;;;;;;2.45;2.25;;;17.00;73.10;;;;;;5112746;28;20186;-65
2023/04/05 11:14:43;;;;;;;4.10;2.40;;;17.00;73.10;;;;;;5079222;28;20187;-65
2023/04/05 11:17:28;;;;;;;2.80;2.35;;;17.00;73.10;;;;;;5072643;28;20204;-65
2023/04/05 11:20:05;;;;;;;3.08;2.15;;;17.10;63.10;;;;;;5075780;28;20259;-65
2023/04/05 11:22:37;;;;;;;3.30;2.65;;;17.10;68.60;;;;;;5102032;28;20208;-65
2023/04/05 11:25:20;;;;;;;2.60;2.10;;;17.10;70.70;;;;;;5094722;28;20192;-66
2023/04/05 11:27:59;;;;;;;3.88;2.40;;;17.10;72.50;;;;;;5094708;28;20203;-66
2023/04/05 11:30:52;;;;;;;3.35;2.53;;;17.20;65.20;;;;;;5071053;28;20184;-65
2023/04/05 11:33:43;;;;;;;3.03;2.40;;;17.20;62.90;;;;;;5080037;28;20164;-65
2023/04/05 11:36:09;;;;;;;3.40;2.28;;;17.10;61.90;;;;;;5097293;28;20194;-66
2023/04/05 11:38:36;;;;;;;4.20;2.53;;;17.10;71.70;;;;;;5071634;28;20254;-66
2023/04/05 11:41:09;;;;;;;2.63;2.00;;;17.00;70.70;;;;;;5065354;28;20197;-65
2023/04/05 11:43:37;;;;;;;2.55;2.00;;;17.00;68.70;;;;;;5059408;28;20273;-65
2023/04/05 11:46:05;;;;;;;4.75;2.22;;;17.00;70.80;;;;;;5077493;28;20168;-65
2023/04/05 11:48:35;;;;;;;3.28;2.13;;;17.10;71.10;;;;;;5090461;28;20280;-65
2023/04/05 11:51:10;;;;;;;2.78;1.85;;;17.20;71.70;;;;;;5074009;28;20230;-65
2023/04/05 11:53:39;;;;;;;3.25;2.03;;;17.20;70.20;;;;;;5059715;28;20168;-65
2023/04/05 11:56:14;;;;;;;3.08;2.00;;;17.30;72.50;;;;;;5065533;28;20277;-65
2023/04/05 11:58:44;;;;;;;3.03;2.33;;;17.40;70.00;;;;;;5103697;28;20171;-65
2023/04/05 12:01:10;;;;;;;2.75;2.15;;;17.50;72.80;;;;;;5075434;28;20353;-66
2023/04/05 12:03:36;;;;;;;2.85;2.03;;;17.60;73.00;;;;;;5109400;28;20172;-66
2023/04/05 12:06:03;;;;;;;2.53;2.10;;;17.70;73.20;;;;;;5108214;28;20176;-65
2023/04/05 12:08:39;;;;;;;3.00;2.70;;;17.70;72.70;;;;;;5078504;28;20195;-66
2023/04/05 12:11:07;;;;;;;2.92;2.60;;;17.80;63.40;;;;;;5079352;28;20179;-65
2023/04/05 12:13:36;;;;;;;2.92;2.42;;;17.80;67.60;;;;;;5078360;28;20175;-66
2023/04/05 12:16:06;;;;;;;2.92;2.60;;;17.70;67.50;;;;;;5078890;28;20205;-67
2023/04/05 12:18:34;;;;;;;4.53;2.72;;;17.60;66.70;;;;;;5078478;28;20259;-66
2023/04/05 12:21:05;;;;;;;3.22;2.22;;;17.40;67.30;;;;;;5078127;28;20202;-66
2023/04/05 12:23:33;;;;;;;2.38;2.17;;;17.40;65.50;;;;;;5089944;28;20183;-66
2023/04/05 12:25:59;;;;;;;3.13;2.60;;;17.30;68.70;;;;;;5059760;28;20198;-66
2023/04/05 12:28:45;;;;;;;4.20;2.50;;;17.30;67.30;;;;;;5093073;28;20232;-67
2023/04/05 12:31:15;;;;;;;2.97;2.67;;;17.40;67.80;;;;;;5092395;28;20176;-67
2023/04/05 12:33:43;;;;;;;3.80;2.70;;;17.40;67.10;;;;;;5091741;28;20223;-66
2023/04/05 12:36:10;;;;;;;3.15;2.80;;;17.40;66.60;;;;;;5082083;28;20263;-66
2023/04/05 12:38:41;;;;;;;3.75;2.72;;;17.30;66.20;;;;;;5077555;28;20183;-67
2023/04/05 12:41:09;;;;;;;3.97;2.50;;;17.20;66.80;;;;;;5078041;28;20172;-67
2023/04/05 12:43:39;;;;;;;3.42;3.00;;;17.10;67.40;;;;;;5078865;28;20188;-66
2023/04/05 12:46:16;;;;;;;3.95;2.80;;;17.00;63.60;;;;;;5072923;28;20205;-65
2023/04/05 12:48:42;;;;;;;4.07;2.83;;;17.00;61.70;;;;;;5067280;28;20168;-65
2023/04/05 12:51:18;;;;;;;3.38;2.63;;;17.00;65.40;;;;;;5074832;28;20180;-65
2023/04/05 12:53:46;;;;;;;3.85;2.83;;;17.10;63.70;;;;;;5109242;28;20172;-65
2023/04/05 12:56:12;;;;;;;2.85;2.47;;;17.10;66.90;;;;;;5071859;28;20190;-65
2023/04/05 12:58:40;;;;;;;3.60;2.78;;;17.20;67.30;;;;;;5078593;28;20319;-65
2023/04/05 13:01:09;;;;;;;5.68;2.75;;;17.20;66.80;;;;;;5087226;28;20267;-65
2023/04/05 13:03:37;;;;;;;4.25;2.83;;;17.20;66.40;;;;;;5078897;28;20224;-65
2023/04/05 13:06:02;;;;;;;2.92;2.60;;;17.20;64.00;;;;;;5078151;28;20182;-65
2023/04/05 13:08:30;;;;;;;4.35;3.10;;;17.30;65.10;;;;;;5077628;28;20172;-65